Meteo Giornale » Osservazioni meteo Stati Uniti (USA) » Seymour-Johnson

ore: 09:57 - Osservazioni Meteo Seymour-Johnson
Lat. 35° 20' N Lon. 77° 58' W Alt. 33 metri s.l.m.

nuvoloso

31 °C

Nuvoloso

Temp. 24 Ore

24 °C

34 °C

Nord-Ovest

7.4 Km/h

Dew point 24 °C

Umidità 66 %

Visibilità  10 Km

Il sole sorge alle ore 06:44

Il sole tramonta alle ore 19:39

Data e Ora Cielo e Fenomeni T °C DP °C Um. % Pres. hPa Vis. km Vento km/h
Oggi h: 09:57 nuvoloso Nuvoloso 31 24 66 1018 10 NO 7.4
Oggi h: 09:55 nuvoloso Nuvoloso 31 24 66 1018 10 O 11.1
Oggi h: 08:55 nuvoloso Nuvoloso 28 24 78 1018 10 O/NO 11.1
Oggi h: 07:55 poco_nuvoloso Poco Nuvoloso 26 24 88 1018 10 O/SO 7.4
Oggi h: 06:55 sereno Sereno 24 23 94 1017 10 N 5.5
Oggi h: 05:55 molto_nuvoloso Molto Nuvoloso 24 23 94 1017 10 N 5.5
Oggi h: 04:55 sereno Sereno 24 23 94 1017 10 N 0
Oggi h: 03:55 sereno Sereno 25 23 88 1018 10 N 5.5
Oggi h: 02:55 sereno Sereno 25 23 88 1018 10 N 5.5
Oggi h: 01:55 sereno Sereno 25 23 88 1018 10 N 0
Oggi h: 00:55 sereno Sereno 26 23 83 1018 10 N 0
Ieri h: 23:55 sereno Sereno 26 23 83 1018 10 N 5.5
Ieri h: 22:55 sereno Sereno 27 23 78 1018 10 S 7.4
Ieri h: 21:55 sereno Sereno 28 24 78 1018 10 S 9.3
Ieri h: 20:55 sereno Sereno 28 22 69 1017 10 S/SE 9.3
Ieri h: 19:55 sereno Sereno 29 22 66 1017 10 N 0
Ieri h: 18:55 poco_nuvoloso Poco Nuvoloso 33 21 49 1017 10 N 5.5
Ieri h: 17:55 sereno Sereno 34 20 43 1017 10 N 0
Ieri h: 16:55 sereno Sereno 34 21 46 1017 10 O/SO 11.1
Ieri h: 15:55 poco_nuvoloso Poco Nuvoloso 33 20 46 1017 10 N 0
Ieri h: 14:55 nuvoloso Nuvoloso 33 21 49 1018 10 N 5.5
Ieri h: 13:55 nuvoloso Nuvoloso 33 22 52 1019 10 N 5.5
Ieri h: 12:55 nuvoloso Nuvoloso 32 21 52 1019 10 N 0
Ieri h: 11:55 poco_nuvoloso Poco Nuvoloso 31 21 55 1019 10 N/NE 7.4